createdAt,value
2022-10-29T00:11:36.441Z,2.73
2022-10-29T00:16:37.463Z,2.87
2022-10-29T00:21:59.107Z,2.63
2022-10-29T00:45:27.428Z,2.47
2022-10-29T00:51:21.238Z,2.43
2022-10-29T00:57:32.277Z,2.83
2022-10-29T01:02:19.572Z,2.53
2022-10-29T01:07:38.841Z,2.87
2022-10-29T01:13:10.204Z,3.20
2022-10-29T01:18:15.156Z,2.97
2022-10-29T01:23:24.755Z,3.47
2022-10-29T01:28:26.225Z,2.77
2022-10-29T01:33:25.316Z,3.23
2022-10-29T01:38:45.308Z,2.90
2022-10-29T01:44:05.983Z,2.37
2022-10-29T01:49:25.479Z,2.70
2022-10-29T01:54:33.821Z,2.90
2022-10-29T01:59:28.903Z,3.00
2022-10-29T02:04:57.381Z,3.00
2022-10-29T02:09:59.360Z,2.93
2022-10-29T02:15:01.561Z,2.83
2022-10-29T02:20:25.757Z,3.00
2022-10-29T02:25:24.344Z,3.23
2022-10-29T02:40:54.297Z,3.10
2022-10-29T02:51:50.412Z,3.20
2022-10-29T02:56:39.756Z,3.97
2022-10-29T03:01:33.173Z,4.33
2022-10-29T03:06:18.763Z,3.10
2022-10-29T03:11:04.279Z,3.40
2022-10-29T03:16:07.316Z,2.70
2022-10-29T03:21:58.789Z,3.07
2022-10-29T03:26:50.212Z,3.20
2022-10-29T03:31:50.255Z,3.37
2022-10-29T03:37:10.400Z,3.00
2022-10-29T03:42:05.348Z,3.30
2022-10-29T03:47:05.073Z,2.77
2022-10-29T03:51:52.086Z,3.57
2022-10-29T03:56:39.294Z,3.10
2022-10-29T04:01:27.675Z,2.97
2022-10-29T04:06:18.398Z,3.10
2022-10-29T04:11:02.009Z,3.60
2022-10-29T04:16:10.846Z,3.57
2022-10-29T04:31:20.533Z,3.27
2022-10-29T04:36:28.231Z,3.17
2022-10-29T04:41:13.229Z,3.30
2022-10-29T04:45:59.452Z,3.70
2022-10-29T04:50:46.179Z,3.27
2022-10-29T04:55:38.516Z,3.40
2022-10-29T05:00:25.141Z,3.30
2022-10-29T05:05:10.537Z,3.70
2022-10-29T05:10:03.309Z,3.37
2022-10-29T05:14:47.143Z,3.80
2022-10-29T05:19:35.409Z,3.90
2022-10-29T05:24:22.056Z,4.00
2022-10-29T05:29:14.893Z,3.60
2022-10-29T05:34:00.877Z,3.87
2022-10-29T05:38:51.933Z,4.13
2022-10-29T05:44:07.951Z,3.80
2022-10-29T05:48:54.243Z,4.43
2022-10-29T05:54:15.921Z,4.53
2022-10-29T06:10:52.439Z,5.53
2022-10-29T06:16:56.537Z,6.20
2022-10-29T06:54:00.308Z,6.23
2022-10-29T06:59:06.415Z,5.93
2022-10-29T07:04:09.770Z,5.33
2022-10-29T07:09:28.155Z,5.03
2022-10-29T07:14:15.680Z,5.30
2022-10-29T07:39:39.149Z,5.23
2022-10-29T07:45:15.797Z,5.03
2022-10-29T07:56:56.908Z,4.77
2022-10-29T08:02:21.607Z,5.07
2022-10-29T08:09:00.477Z,4.73
2022-10-29T08:14:15.789Z,4.20
2022-10-29T08:19:18.278Z,4.37
2022-10-29T08:24:23.363Z,4.40
2022-10-29T08:30:20.806Z,10.63
2022-10-29T08:54:32.047Z,8.60
2022-10-29T09:04:55.313Z,8.73
2022-10-29T09:10:31.493Z,8.23
2022-10-29T09:34:31.158Z,12.30
2022-10-29T09:52:12.399Z,11.77
2022-10-29T09:57:26.852Z,11.60
2022-10-29T10:08:58.274Z,12.70
2022-10-29T10:20:57.310Z,12.47
2022-10-29T10:32:27.214Z,12.07
2022-10-29T10:43:57.360Z,13.40
2022-10-29T10:50:30.130Z,12.97
2022-10-29T11:02:34.855Z,10.63
2022-10-29T11:08:13.531Z,10.70
2022-10-29T11:26:30.676Z,10.03
2022-10-29T12:04:41.571Z,10.60
2022-10-29T12:30:01.390Z,10.67
2022-10-29T13:14:51.194Z,10.17
2022-10-29T13:34:16.105Z,13.67
2022-10-29T13:39:38.865Z,13.17
2022-10-29T13:44:23.685Z,13.23
2022-10-29T14:02:33.681Z,14.23
2022-10-29T14:14:32.300Z,16.60
2022-10-29T14:19:51.551Z,18.00
2022-10-29T14:24:57.684Z,18.13
2022-10-29T14:30:34.176Z,18.60
2022-10-29T14:35:40.546Z,17.10
2022-10-29T14:40:24.617Z,17.63
2022-10-29T14:45:22.875Z,16.93
2022-10-29T14:56:59.147Z,18.73
2022-10-29T15:14:12.135Z,17.33
2022-10-29T15:19:06.767Z,18.97
2022-10-29T15:24:25.454Z,21.13
2022-10-29T15:30:19.586Z,21.93
2022-10-29T15:36:22.330Z,18.07
2022-10-29T15:47:40.711Z,19.47
2022-10-29T16:11:07.981Z,21.80
2022-10-29T16:15:53.594Z,21.47
2022-10-29T16:45:16.717Z,22.43
2022-10-29T16:51:04.057Z,22.63
2022-10-29T16:57:16.509Z,22.17
2022-10-29T17:14:30.835Z,24.83
2022-10-29T17:19:41.380Z,24.03
2022-10-29T17:24:42.228Z,25.27
2022-10-29T17:30:18.872Z,22.17
2022-10-29T17:35:20.285Z,60.33
2022-10-29T17:40:09.836Z,66.83
2022-10-29T17:45:59.635Z,55.10
2022-10-29T17:51:21.921Z,28.00
2022-10-29T18:02:17.783Z,20.97
2022-10-29T18:20:24.967Z,13.03
2022-10-29T18:26:15.155Z,10.00
2022-10-29T18:37:30.472Z,10.30
2022-10-29T18:43:39.230Z,10.50
2022-10-29T18:50:34.506Z,9.20
2022-10-29T18:55:50.506Z,8.80
2022-10-29T19:01:46.533Z,8.73
2022-10-29T19:06:48.953Z,9.10
2022-10-29T19:12:23.632Z,8.13
2022-10-29T19:18:51.896Z,8.13
2022-10-29T19:30:00.564Z,7.80
2022-10-29T19:35:08.042Z,8.17
2022-10-29T19:54:15.303Z,7.83
2022-10-29T19:59:56.039Z,7.90
2022-10-29T20:32:45.145Z,5.17
2022-10-29T20:51:39.436Z,5.40
2022-10-29T21:16:27.556Z,5.20
2022-10-29T21:28:28.693Z,5.50
2022-10-29T21:54:24.320Z,4.10
2022-10-29T22:24:54.324Z,3.63
2022-10-29T22:35:36.827Z,4.20
2022-10-29T22:47:21.177Z,5.40
2022-10-29T22:58:48.741Z,4.60
2022-10-29T23:04:24.581Z,3.80
2022-10-29T23:13:48.295Z,3.60
2022-10-29T23:34:37.086Z,3.67
2022-10-29T23:39:22.182Z,3.53
2022-10-29T23:44:13.010Z,4.47
2022-10-29T23:48:57.051Z,4.50
2022-10-29T23:54:15.499Z,4.30
2022-10-29T23:59:03.852Z,4.47
